sensor_id;sensor_type;location;lat;lon;timestamp;temperature;humidity
28863;DHT22;15994;51.796;13.006;2023-04-25T00:00:56;6.50;99.90
28863;DHT22;15994;51.796;13.006;2023-04-25T00:03:22;6.50;99.90
28863;DHT22;15994;51.796;13.006;2023-04-25T00:05:50;6.50;99.90
28863;DHT22;15994;51.796;13.006;2023-04-25T00:08:17;6.40;99.90
28863;DHT22;15994;51.796;13.006;2023-04-25T00:10:44;6.50;99.90
28863;DHT22;15994;51.796;13.006;2023-04-25T00:13:10;6.50;99.90
28863;DHT22;15994;51.796;13.006;2023-04-25T00:15:37;6.50;99.90
28863;DHT22;15994;51.796;13.006;2023-04-25T00:18:04;6.50;99.90
28863;DHT22;15994;51.796;13.006;2023-04-25T00:20:31;6.60;99.90
28863;DHT22;15994;51.796;13.006;2023-04-25T00:22:58;6.60;99.90
28863;DHT22;15994;51.796;13.006;2023-04-25T00:25:24;6.60;99.90
28863;DHT22;15994;51.796;13.006;2023-04-25T00:27:51;6.70;99.90
28863;DHT22;15994;51.796;13.006;2023-04-25T00:30:18;6.70;99.90
28863;DHT22;15994;51.796;13.006;2023-04-25T00:32:44;6.70;99.90
28863;DHT22;15994;51.796;13.006;2023-04-25T00:35:11;6.80;99.90
28863;DHT22;15994;51.796;13.006;2023-04-25T00:37:37;6.90;99.90
28863;DHT22;15994;51.796;13.006;2023-04-25T00:40:07;6.90;99.90
28863;DHT22;15994;51.796;13.006;2023-04-25T00:42:35;6.90;99.90
28863;DHT22;15994;51.796;13.006;2023-04-25T00:45:05;7.00;99.90
28863;DHT22;15994;51.796;13.006;2023-04-25T00:47:33;7.00;99.90
28863;DHT22;15994;51.796;13.006;2023-04-25T00:49:59;6.90;99.90
28863;DHT22;15994;51.796;13.006;2023-04-25T00:52:26;7.00;99.90
28863;DHT22;15994;51.796;13.006;2023-04-25T00:54:52;7.00;99.90
28863;DHT22;15994;51.796;13.006;2023-04-25T00:57:19;6.90;99.90
28863;DHT22;15994;51.796;13.006;2023-04-25T00:59:45;7.00;99.90
28863;DHT22;15994;51.796;13.006;2023-04-25T01:02:12;7.00;99.90
28863;DHT22;15994;51.796;13.006;2023-04-25T01:04:39;7.00;99.90
28863;DHT22;15994;51.796;13.006;2023-04-25T01:07:06;6.90;99.90
28863;DHT22;15994;51.796;13.006;2023-04-25T01:09:32;6.90;99.90
28863;DHT22;15994;51.796;13.006;2023-04-25T01:11:59;7.00;99.90
28863;DHT22;15994;51.796;13.006;2023-04-25T01:14:26;7.00;99.90
28863;DHT22;15994;51.796;13.006;2023-04-25T01:16:52;7.00;99.90
28863;DHT22;15994;51.796;13.006;2023-04-25T01:19:20;7.10;99.90
28863;DHT22;15994;51.796;13.006;2023-04-25T01:21:46;7.10;99.90
28863;DHT22;15994;51.796;13.006;2023-04-25T01:24:13;7.20;99.90
28863;DHT22;15994;51.796;13.006;2023-04-25T01:26:41;7.10;99.90
28863;DHT22;15994;51.796;13.006;2023-04-25T01:29:10;7.10;99.90
28863;DHT22;15994;51.796;13.006;2023-04-25T01:31:36;7.10;99.90
28863;DHT22;15994;51.796;13.006;2023-04-25T01:34:03;7.10;99.90
28863;DHT22;15994;51.796;13.006;2023-04-25T01:36:30;7.10;99.90
28863;DHT22;15994;51.796;13.006;2023-04-25T01:38:57;7.10;99.90
28863;DHT22;15994;51.796;13.006;2023-04-25T01:41:23;7.00;99.90
28863;DHT22;15994;51.796;13.006;2023-04-25T01:43:50;6.90;99.90
28863;DHT22;15994;51.796;13.006;2023-04-25T01:46:17;6.90;99.90
28863;DHT22;15994;51.796;13.006;2023-04-25T01:48:43;6.90;99.90
28863;DHT22;15994;51.796;13.006;2023-04-25T01:51:11;6.80;99.90
28863;DHT22;15994;51.796;13.006;2023-04-25T01:53:38;6.80;99.90
28863;DHT22;15994;51.796;13.006;2023-04-25T01:56:05;6.70;99.90
28863;DHT22;15994;51.796;13.006;2023-04-25T01:58:32;6.70;99.90
28863;DHT22;15994;51.796;13.006;2023-04-25T02:00:58;6.70;99.90
28863;DHT22;15994;51.796;13.006;2023-04-25T02:03:25;6.70;99.90
28863;DHT22;15994;51.796;13.006;2023-04-25T02:05:52;6.70;99.90
28863;DHT22;15994;51.796;13.006;2023-04-25T02:08:18;6.80;99.90
28863;DHT22;15994;51.796;13.006;2023-04-25T02:10:45;6.70;99.90
28863;DHT22;15994;51.796;13.006;2023-04-25T02:13:11;6.80;99.90
28863;DHT22;15994;51.796;13.006;2023-04-25T02:15:38;6.80;99.90
28863;DHT22;15994;51.796;13.006;2023-04-25T02:18:04;6.70;99.90
28863;DHT22;15994;51.796;13.006;2023-04-25T02:20:31;6.70;99.90
28863;DHT22;15994;51.796;13.006;2023-04-25T02:22:58;6.70;99.90
28863;DHT22;15994;51.796;13.006;2023-04-25T02:25:25;6.70;99.90
28863;DHT22;15994;51.796;13.006;2023-04-25T02:27:51;6.70;99.90
28863;DHT22;15994;51.796;13.006;2023-04-25T02:30:18;6.70;99.90
28863;DHT22;15994;51.796;13.006;2023-04-25T02:32:44;6.60;99.90
28863;DHT22;15994;51.796;13.006;2023-04-25T02:35:11;6.60;99.90
28863;DHT22;15994;51.796;13.006;2023-04-25T02:37:38;6.50;99.90
28863;DHT22;15994;51.796;13.006;2023-04-25T02:40:06;6.50;99.90
28863;DHT22;15994;51.796;13.006;2023-04-25T02:42:33;6.50;99.90
28863;DHT22;15994;51.796;13.006;2023-04-25T02:44:59;6.50;99.90
28863;DHT22;15994;51.796;13.006;2023-04-25T02:47:26;6.50;99.90
28863;DHT22;15994;51.796;13.006;2023-04-25T02:49:52;6.60;99.90
28863;DHT22;15994;51.796;13.006;2023-04-25T02:52:19;6.50;99.90
28863;DHT22;15994;51.796;13.006;2023-04-25T02:54:46;6.60;99.90
28863;DHT22;15994;51.796;13.006;2023-04-25T02:57:13;6.60;99.90
28863;DHT22;15994;51.796;13.006;2023-04-25T02:59:40;6.60;99.90
28863;DHT22;15994;51.796;13.006;2023-04-25T03:02:06;6.60;99.90
28863;DHT22;15994;51.796;13.006;2023-04-25T03:04:33;6.50;99.90
28863;DHT22;15994;51.796;13.006;2023-04-25T03:06:59;6.50;99.90
28863;DHT22;15994;51.796;13.006;2023-04-25T03:09:26;6.50;99.90
28863;DHT22;15994;51.796;13.006;2023-04-25T03:11:52;6.50;99.90
28863;DHT22;15994;51.796;13.006;2023-04-25T03:14:19;6.40;99.90
28863;DHT22;15994;51.796;13.006;2023-04-25T03:16:45;6.30;99.90
28863;DHT22;15994;51.796;13.006;2023-04-25T03:19:12;6.40;99.90
28863;DHT22;15994;51.796;13.006;2023-04-25T03:21:41;6.40;99.90
28863;DHT22;15994;51.796;13.006;2023-04-25T03:24:07;6.40;99.90
28863;DHT22;15994;51.796;13.006;2023-04-25T03:26:34;6.40;99.90
28863;DHT22;15994;51.796;13.006;2023-04-25T03:29:00;6.40;99.90
28863;DHT22;15994;51.796;13.006;2023-04-25T03:31:27;6.40;99.90
28863;DHT22;15994;51.796;13.006;2023-04-25T03:33:53;6.30;99.90
28863;DHT22;15994;51.796;13.006;2023-04-25T03:36:20;6.20;99.90
28863;DHT22;15994;51.796;13.006;2023-04-25T03:38:46;6.20;99.90
28863;DHT22;15994;51.796;13.006;2023-04-25T03:41:14;6.20;99.90
28863;DHT22;15994;51.796;13.006;2023-04-25T03:43:40;6.20;99.90
28863;DHT22;15994;51.796;13.006;2023-04-25T03:46:07;6.20;99.90
28863;DHT22;15994;51.796;13.006;2023-04-25T03:48:33;6.10;99.90
28863;DHT22;15994;51.796;13.006;2023-04-25T03:51:00;6.10;99.90
28863;DHT22;15994;51.796;13.006;2023-04-25T03:53:26;6.10;99.90
28863;DHT22;15994;51.796;13.006;2023-04-25T03:55:53;6.10;99.90
28863;DHT22;15994;51.796;13.006;2023-04-25T03:58:19;6.10;99.90
28863;DHT22;15994;51.796;13.006;2023-04-25T04:00:46;6.10;99.90
28863;DHT22;15994;51.796;13.006;2023-04-25T04:03:12;6.10;99.90
28863;DHT22;15994;51.796;13.006;2023-04-25T04:05:39;6.10;99.90
28863;DHT22;15994;51.796;13.006;2023-04-25T04:08:06;6.10;99.90
28863;DHT22;15994;51.796;13.006;2023-04-25T04:10:32;6.10;99.90
28863;DHT22;15994;51.796;13.006;2023-04-25T04:12:59;6.00;99.90
28863;DHT22;15994;51.796;13.006;2023-04-25T04:15:25;6.00;99.90
28863;DHT22;15994;51.796;13.006;2023-04-25T04:17:52;6.00;99.90
28863;DHT22;15994;51.796;13.006;2023-04-25T04:20:19;5.90;99.90
28863;DHT22;15994;51.796;13.006;2023-04-25T04:22:46;5.90;99.90
28863;DHT22;15994;51.796;13.006;2023-04-25T04:25:13;5.90;99.90
28863;DHT22;15994;51.796;13.006;2023-04-25T04:27:39;5.90;99.90
28863;DHT22;15994;51.796;13.006;2023-04-25T04:30:06;5.80;99.90
28863;DHT22;15994;51.796;13.006;2023-04-25T04:32:33;5.80;99.90
28863;DHT22;15994;51.796;13.006;2023-04-25T04:35:02;5.90;99.90
28863;DHT22;15994;51.796;13.006;2023-04-25T04:37:30;5.80;99.90
28863;DHT22;15994;51.796;13.006;2023-04-25T04:39:56;5.80;99.90
28863;DHT22;15994;51.796;13.006;2023-04-25T04:42:23;5.80;99.90
28863;DHT22;15994;51.796;13.006;2023-04-25T04:44:50;5.80;99.90
28863;DHT22;15994;51.796;13.006;2023-04-25T04:47:17;5.90;99.90
28863;DHT22;15994;51.796;13.006;2023-04-25T04:49:45;5.90;99.90
28863;DHT22;15994;51.796;13.006;2023-04-25T04:52:11;6.00;99.90
28863;DHT22;15994;51.796;13.006;2023-04-25T04:54:38;6.00;99.90
28863;DHT22;15994;51.796;13.006;2023-04-25T04:57:04;6.10;99.90
28863;DHT22;15994;51.796;13.006;2023-04-25T04:59:31;6.10;99.90
28863;DHT22;15994;51.796;13.006;2023-04-25T05:01:58;6.20;99.90
28863;DHT22;15994;51.796;13.006;2023-04-25T05:04:24;6.30;99.90
28863;DHT22;15994;51.796;13.006;2023-04-25T05:06:51;6.40;99.90
28863;DHT22;15994;51.796;13.006;2023-04-25T05:09:17;6.50;99.90
28863;DHT22;15994;51.796;13.006;2023-04-25T05:11:44;6.70;99.90
28863;DHT22;15994;51.796;13.006;2023-04-25T05:14:11;6.70;99.90
28863;DHT22;15994;51.796;13.006;2023-04-25T05:16:37;6.80;99.90
28863;DHT22;15994;51.796;13.006;2023-04-25T05:19:04;6.90;99.90
28863;DHT22;15994;51.796;13.006;2023-04-25T05:21:30;7.00;99.90
28863;DHT22;15994;51.796;13.006;2023-04-25T05:23:57;7.00;99.90
28863;DHT22;15994;51.796;13.006;2023-04-25T05:26:24;7.10;99.90
28863;DHT22;15994;51.796;13.006;2023-04-25T05:28:51;7.10;99.90
28863;DHT22;15994;51.796;13.006;2023-04-25T05:31:17;7.20;99.90
28863;DHT22;15994;51.796;13.006;2023-04-25T05:33:44;7.30;99.90
28863;DHT22;15994;51.796;13.006;2023-04-25T05:36:10;7.30;99.90
28863;DHT22;15994;51.796;13.006;2023-04-25T05:38:37;7.40;99.90
28863;DHT22;15994;51.796;13.006;2023-04-25T05:41:03;7.40;99.90
28863;DHT22;15994;51.796;13.006;2023-04-25T05:43:30;7.40;99.90
28863;DHT22;15994;51.796;13.006;2023-04-25T05:45:57;7.40;99.90
28863;DHT22;15994;51.796;13.006;2023-04-25T05:48:23;7.40;99.90
28863;DHT22;15994;51.796;13.006;2023-04-25T05:50:50;7.40;99.90
28863;DHT22;15994;51.796;13.006;2023-04-25T05:53:18;7.50;99.90
28863;DHT22;15994;51.796;13.006;2023-04-25T05:55:44;7.50;99.90
28863;DHT22;15994;51.796;13.006;2023-04-25T05:58:11;7.50;99.90
28863;DHT22;15994;51.796;13.006;2023-04-25T06:00:37;7.60;99.90
28863;DHT22;15994;51.796;13.006;2023-04-25T06:03:06;7.70;99.90
28863;DHT22;15994;51.796;13.006;2023-04-25T06:05:35;7.80;99.90
28863;DHT22;15994;51.796;13.006;2023-04-25T06:08:02;7.90;99.90
28863;DHT22;15994;51.796;13.006;2023-04-25T06:10:28;7.90;99.90
28863;DHT22;15994;51.796;13.006;2023-04-25T06:12:55;8.00;99.90
28863;DHT22;15994;51.796;13.006;2023-04-25T06:15:21;8.10;99.90
28863;DHT22;15994;51.796;13.006;2023-04-25T06:17:48;8.10;99.90
28863;DHT22;15994;51.796;13.006;2023-04-25T06:20:14;8.20;99.90
28863;DHT22;15994;51.796;13.006;2023-04-25T06:22:41;8.30;99.90
28863;DHT22;15994;51.796;13.006;2023-04-25T06:25:08;8.30;99.90
28863;DHT22;15994;51.796;13.006;2023-04-25T06:27:34;8.40;99.90
28863;DHT22;15994;51.796;13.006;2023-04-25T06:30:01;8.60;99.90
28863;DHT22;15994;51.796;13.006;2023-04-25T06:32:27;8.70;99.90
28863;DHT22;15994;51.796;13.006;2023-04-25T06:34:55;8.70;99.90
28863;DHT22;15994;51.796;13.006;2023-04-25T06:37:21;8.80;99.90
28863;DHT22;15994;51.796;13.006;2023-04-25T06:39:48;8.80;99.90
28863;DHT22;15994;51.796;13.006;2023-04-25T06:42:14;9.00;99.90
28863;DHT22;15994;51.796;13.006;2023-04-25T06:44:41;9.00;99.90
28863;DHT22;15994;51.796;13.006;2023-04-25T06:47:07;9.30;99.90
28863;DHT22;15994;51.796;13.006;2023-04-25T06:49:34;9.50;99.90
28863;DHT22;15994;51.796;13.006;2023-04-25T06:52:01;9.60;99.90
28863;DHT22;15994;51.796;13.006;2023-04-25T06:54:28;9.50;99.90
28863;DHT22;15994;51.796;13.006;2023-04-25T06:56:55;9.30;99.90
28863;DHT22;15994;51.796;13.006;2023-04-25T06:59:22;9.30;99.90
28863;DHT22;15994;51.796;13.006;2023-04-25T07:01:49;9.20;99.90
28863;DHT22;15994;51.796;13.006;2023-04-25T07:04:15;9.30;99.90
28863;DHT22;15994;51.796;13.006;2023-04-25T07:06:42;9.50;99.90
28863;DHT22;15994;51.796;13.006;2023-04-25T07:09:09;9.70;99.90
28863;DHT22;15994;51.796;13.006;2023-04-25T07:11:36;9.70;99.90
28863;DHT22;15994;51.796;13.006;2023-04-25T07:14:03;9.60;99.90
28863;DHT22;15994;51.796;13.006;2023-04-25T07:16:29;9.60;99.90
28863;DHT22;15994;51.796;13.006;2023-04-25T07:18:56;9.40;99.90
28863;DHT22;15994;51.796;13.006;2023-04-25T07:21:22;9.60;99.90
28863;DHT22;15994;51.796;13.006;2023-04-25T07:23:49;9.70;99.90
28863;DHT22;15994;51.796;13.006;2023-04-25T07:26:15;9.80;99.90
28863;DHT22;15994;51.796;13.006;2023-04-25T07:28:42;10.00;99.90
28863;DHT22;15994;51.796;13.006;2023-04-25T07:31:09;10.00;99.90
28863;DHT22;15994;51.796;13.006;2023-04-25T07:33:35;10.20;99.90
28863;DHT22;15994;51.796;13.006;2023-04-25T07:36:02;10.20;99.90
28863;DHT22;15994;51.796;13.006;2023-04-25T07:38:29;10.00;99.90
28863;DHT22;15994;51.796;13.006;2023-04-25T07:40:55;10.00;99.90
28863;DHT22;15994;51.796;13.006;2023-04-25T07:43:22;10.10;99.90
28863;DHT22;15994;51.796;13.006;2023-04-25T07:45:48;9.90;99.90
28863;DHT22;15994;51.796;13.006;2023-04-25T07:48:18;9.80;99.90
28863;DHT22;15994;51.796;13.006;2023-04-25T07:50:45;9.60;99.90
28863;DHT22;15994;51.796;13.006;2023-04-25T07:53:11;9.60;99.90
28863;DHT22;15994;51.796;13.006;2023-04-25T07:55:38;9.60;99.90
28863;DHT22;15994;51.796;13.006;2023-04-25T07:58:06;9.70;99.90
28863;DHT22;15994;51.796;13.006;2023-04-25T08:00:33;9.70;99.90
28863;DHT22;15994;51.796;13.006;2023-04-25T08:02:59;9.80;99.90
28863;DHT22;15994;51.796;13.006;2023-04-25T08:05:26;9.90;99.90
28863;DHT22;15994;51.796;13.006;2023-04-25T08:07:52;10.00;99.90
28863;DHT22;15994;51.796;13.006;2023-04-25T08:10:19;9.80;99.90
28863;DHT22;15994;51.796;13.006;2023-04-25T08:12:47;9.90;99.90
28863;DHT22;15994;51.796;13.006;2023-04-25T08:15:14;9.70;99.90
28863;DHT22;15994;51.796;13.006;2023-04-25T08:17:41;9.80;99.90
28863;DHT22;15994;51.796;13.006;2023-04-25T08:20:09;9.80;99.90
28863;DHT22;15994;51.796;13.006;2023-04-25T08:22:36;9.90;99.90
28863;DHT22;15994;51.796;13.006;2023-04-25T08:25:03;9.90;99.90
28863;DHT22;15994;51.796;13.006;2023-04-25T08:27:29;9.80;99.90
28863;DHT22;15994;51.796;13.006;2023-04-25T08:29:56;9.50;99.90
28863;DHT22;15994;51.796;13.006;2023-04-25T08:32:23;9.50;99.90
28863;DHT22;15994;51.796;13.006;2023-04-25T08:34:50;9.40;99.90
28863;DHT22;15994;51.796;13.006;2023-04-25T08:37:19;9.30;99.90
28863;DHT22;15994;51.796;13.006;2023-04-25T08:39:46;9.20;99.90
28863;DHT22;15994;51.796;13.006;2023-04-25T08:42:14;9.10;99.90
28863;DHT22;15994;51.796;13.006;2023-04-25T08:44:41;9.00;99.90
28863;DHT22;15994;51.796;13.006;2023-04-25T08:47:07;9.00;99.90
28863;DHT22;15994;51.796;13.006;2023-04-25T08:49:34;9.00;99.90
28863;DHT22;15994;51.796;13.006;2023-04-25T08:52:03;8.90;99.90
28863;DHT22;15994;51.796;13.006;2023-04-25T08:54:31;8.90;99.90
28863;DHT22;15994;51.796;13.006;2023-04-25T08:57:01;9.20;99.90
28863;DHT22;15994;51.796;13.006;2023-04-25T08:59:30;9.40;99.90
28863;DHT22;15994;51.796;13.006;2023-04-25T09:01:57;9.60;99.90
28863;DHT22;15994;51.796;13.006;2023-04-25T09:04:24;9.70;99.90
28863;DHT22;15994;51.796;13.006;2023-04-25T09:06:51;9.70;99.90
28863;DHT22;15994;51.796;13.006;2023-04-25T09:09:17;9.90;99.90
28863;DHT22;15994;51.796;13.006;2023-04-25T09:11:44;9.90;99.90
28863;DHT22;15994;51.796;13.006;2023-04-25T09:19:32;10.10;99.90
28863;DHT22;15994;51.796;13.006;2023-04-25T09:22:02;10.30;99.90
28863;DHT22;15994;51.796;13.006;2023-04-25T09:24:39;10.40;99.90
28863;DHT22;15994;51.796;13.006;2023-04-25T09:27:08;10.70;99.90
28863;DHT22;15994;51.796;13.006;2023-04-25T09:29:37;10.90;99.90
28863;DHT22;15994;51.796;13.006;2023-04-25T09:32:15;11.10;99.90
28863;DHT22;15994;51.796;13.006;2023-04-25T09:34:46;10.90;99.90
28863;DHT22;15994;51.796;13.006;2023-04-25T09:37:19;10.80;99.90
28863;DHT22;15994;51.796;13.006;2023-04-25T09:39:52;10.70;99.90
28863;DHT22;15994;51.796;13.006;2023-04-25T09:42:22;10.80;99.90
28863;DHT22;15994;51.796;13.006;2023-04-25T09:44:51;11.00;99.90
28863;DHT22;15994;51.796;13.006;2023-04-25T09:47:18;11.00;99.90
28863;DHT22;15994;51.796;13.006;2023-04-25T09:49:47;11.20;99.90
28863;DHT22;15994;51.796;13.006;2023-04-25T09:52:18;11.10;99.90
28863;DHT22;15994;51.796;13.006;2023-04-25T09:54:46;11.10;99.90
28863;DHT22;15994;51.796;13.006;2023-04-25T09:57:21;11.00;99.90
28863;DHT22;15994;51.796;13.006;2023-04-25T09:59:49;10.90;99.90
28863;DHT22;15994;51.796;13.006;2023-04-25T10:02:18;10.70;99.90
28863;DHT22;15994;51.796;13.006;2023-04-25T10:04:48;10.60;99.90
28863;DHT22;15994;51.796;13.006;2023-04-25T10:07:17;10.70;99.90
28863;DHT22;15994;51.796;13.006;2023-04-25T10:09:47;10.80;99.90
28863;DHT22;15994;51.796;13.006;2023-04-25T10:12:16;10.60;99.90
28863;DHT22;15994;51.796;13.006;2023-04-25T10:14:43;10.80;99.90
28863;DHT22;15994;51.796;13.006;2023-04-25T10:17:10;10.80;99.90
28863;DHT22;15994;51.796;13.006;2023-04-25T10:19:37;10.80;99.90
28863;DHT22;15994;51.796;13.006;2023-04-25T10:22:07;10.80;99.90
28863;DHT22;15994;51.796;13.006;2023-04-25T10:24:35;10.70;99.90
28863;DHT22;15994;51.796;13.006;2023-04-25T10:27:03;10.80;99.90
28863;DHT22;15994;51.796;13.006;2023-04-25T10:29:30;10.60;99.90
28863;DHT22;15994;51.796;13.006;2023-04-25T10:31:57;10.70;99.90
28863;DHT22;15994;51.796;13.006;2023-04-25T10:34:37;10.80;99.90
28863;DHT22;15994;51.796;13.006;2023-04-25T10:37:04;11.20;99.90
28863;DHT22;15994;51.796;13.006;2023-04-25T10:39:32;11.50;99.90
28863;DHT22;15994;51.796;13.006;2023-04-25T10:42:01;11.60;99.90
28863;DHT22;15994;51.796;13.006;2023-04-25T10:44:29;11.50;99.90
28863;DHT22;15994;51.796;13.006;2023-04-25T10:46:57;11.50;99.90
28863;DHT22;15994;51.796;13.006;2023-04-25T10:49:42;11.60;99.90
28863;DHT22;15994;51.796;13.006;2023-04-25T10:52:34;11.50;99.90
28863;DHT22;15994;51.796;13.006;2023-04-25T10:55:03;11.20;99.90
28863;DHT22;15994;51.796;13.006;2023-04-25T10:57:36;11.30;99.90
28863;DHT22;15994;51.796;13.006;2023-04-25T11:02:45;11.50;99.70
28863;DHT22;15994;51.796;13.006;2023-04-25T11:05:36;11.70;99.90
28863;DHT22;15994;51.796;13.006;2023-04-25T11:08:11;11.50;99.00
28863;DHT22;15994;51.796;13.006;2023-04-25T11:10:40;11.50;99.40
28863;DHT22;15994;51.796;13.006;2023-04-25T11:13:06;11.30;99.10
28863;DHT22;15994;51.796;13.006;2023-04-25T11:15:33;10.90;98.90
28863;DHT22;15994;51.796;13.006;2023-04-25T11:17:59;11.20;99.30
28863;DHT22;15994;51.796;13.006;2023-04-25T11:20:26;11.10;99.20
28863;DHT22;15994;51.796;13.006;2023-04-25T11:22:53;10.90;99.10
28863;DHT22;15994;51.796;13.006;2023-04-25T11:25:24;10.80;99.30
28863;DHT22;15994;51.796;13.006;2023-04-25T11:27:55;10.70;99.40
28863;DHT22;15994;51.796;13.006;2023-04-25T11:30:23;10.80;99.50
28863;DHT22;15994;51.796;13.006;2023-04-25T11:32:50;10.90;99.30
28863;DHT22;15994;51.796;13.006;2023-04-25T11:35:17;11.10;99.20
28863;DHT22;15994;51.796;13.006;2023-04-25T11:37:44;11.20;99.20
28863;DHT22;15994;51.796;13.006;2023-04-25T11:40:11;11.30;98.00
28863;DHT22;15994;51.796;13.006;2023-04-25T11:42:45;11.40;98.00
28863;DHT22;15994;51.796;13.006;2023-04-25T11:45:12;11.50;98.30
28863;DHT22;15994;51.796;13.006;2023-04-25T11:47:39;11.10;98.50
28863;DHT22;15994;51.796;13.006;2023-04-25T11:50:07;10.90;98.70
28863;DHT22;15994;51.796;13.006;2023-04-25T11:52:47;10.90;99.20
28863;DHT22;15994;51.796;13.006;2023-04-25T11:55:16;10.50;99.60
28863;DHT22;15994;51.796;13.006;2023-04-25T11:57:45;10.40;99.90
28863;DHT22;15994;51.796;13.006;2023-04-25T12:00:13;10.20;99.90
28863;DHT22;15994;51.796;13.006;2023-04-25T12:02:45;10.30;99.90
28863;DHT22;15994;51.796;13.006;2023-04-25T12:05:14;10.20;99.50
28863;DHT22;15994;51.796;13.006;2023-04-25T12:07:41;10.40;99.50
28863;DHT22;15994;51.796;13.006;2023-04-25T12:10:10;10.40;98.60
28863;DHT22;15994;51.796;13.006;2023-04-25T12:12:38;10.50;98.10
28863;DHT22;15994;51.796;13.006;2023-04-25T12:15:15;10.90;98.10
28863;DHT22;15994;51.796;13.006;2023-04-25T12:17:45;11.20;98.70
28863;DHT22;15994;51.796;13.006;2023-04-25T12:20:17;11.60;98.00
28863;DHT22;15994;51.796;13.006;2023-04-25T12:22:46;11.50;96.90
28863;DHT22;15994;51.796;13.006;2023-04-25T12:25:14;11.60;96.80
28863;DHT22;15994;51.796;13.006;2023-04-25T12:28:23;11.50;96.40
28863;DHT22;15994;51.796;13.006;2023-04-25T12:33:21;11.20;95.30
28863;DHT22;15994;51.796;13.006;2023-04-25T12:35:47;11.20;96.30
28863;DHT22;15994;51.796;13.006;2023-04-25T12:38:27;10.90;95.40
28863;DHT22;15994;51.796;13.006;2023-04-25T12:40:56;10.70;96.10
28863;DHT22;15994;51.796;13.006;2023-04-25T12:43:23;10.90;96.70
28863;DHT22;15994;51.796;13.006;2023-04-25T12:45:53;11.10;96.90
28863;DHT22;15994;51.796;13.006;2023-04-25T12:48:21;11.20;96.10
28863;DHT22;15994;51.796;13.006;2023-04-25T12:50:49;11.20;96.00
28863;DHT22;15994;51.796;13.006;2023-04-25T12:53:16;11.30;95.60
28863;DHT22;15994;51.796;13.006;2023-04-25T12:55:43;11.30;95.40
28863;DHT22;15994;51.796;13.006;2023-04-25T12:58:11;11.50;94.80
28863;DHT22;15994;51.796;13.006;2023-04-25T13:00:38;12.10;94.60
28863;DHT22;15994;51.796;13.006;2023-04-25T13:03:04;12.20;94.10
28863;DHT22;15994;51.796;13.006;2023-04-25T13:05:31;12.00;94.00
28863;DHT22;15994;51.796;13.006;2023-04-25T13:07:58;12.00;94.20
28863;DHT22;15994;51.796;13.006;2023-04-25T13:10:24;11.80;93.70
28863;DHT22;15994;51.796;13.006;2023-04-25T13:12:51;11.60;93.60
28863;DHT22;15994;51.796;13.006;2023-04-25T13:15:17;11.40;93.30
28863;DHT22;15994;51.796;13.006;2023-04-25T13:17:44;11.50;93.80
28863;DHT22;15994;51.796;13.006;2023-04-25T13:20:10;11.70;94.10
28863;DHT22;15994;51.796;13.006;2023-04-25T13:22:40;11.70;93.60
28863;DHT22;15994;51.796;13.006;2023-04-25T13:25:07;11.70;92.90
28863;DHT22;15994;51.796;13.006;2023-04-25T13:27:35;11.50;91.40
28863;DHT22;15994;51.796;13.006;2023-04-25T13:30:04;11.50;91.10
28863;DHT22;15994;51.796;13.006;2023-04-25T13:32:36;11.40;91.90
28863;DHT22;15994;51.796;13.006;2023-04-25T13:35:10;11.20;92.10
28863;DHT22;15994;51.796;13.006;2023-04-25T13:37:37;11.00;92.90
28863;DHT22;15994;51.796;13.006;2023-04-25T13:40:07;10.90;93.80
28863;DHT22;15994;51.796;13.006;2023-04-25T13:42:34;11.00;94.60
28863;DHT22;15994;51.796;13.006;2023-04-25T13:45:02;11.20;95.50
28863;DHT22;15994;51.796;13.006;2023-04-25T13:47:29;11.20;95.40
28863;DHT22;15994;51.796;13.006;2023-04-25T13:49:56;11.60;95.70
28863;DHT22;15994;51.796;13.006;2023-04-25T13:52:23;12.00;95.30
28863;DHT22;15994;51.796;13.006;2023-04-25T13:54:51;11.90;94.30
28863;DHT22;15994;51.796;13.006;2023-04-25T13:57:18;11.50;93.40
28863;DHT22;15994;51.796;13.006;2023-04-25T13:59:45;11.40;93.70
28863;DHT22;15994;51.796;13.006;2023-04-25T14:02:12;11.60;93.60
28863;DHT22;15994;51.796;13.006;2023-04-25T14:04:39;11.50;93.20
28863;DHT22;15994;51.796;13.006;2023-04-25T14:07:06;11.20;93.10
28863;DHT22;15994;51.796;13.006;2023-04-25T14:09:32;11.00;94.50
28863;DHT22;15994;51.796;13.006;2023-04-25T14:11:59;11.00;93.80
28863;DHT22;15994;51.796;13.006;2023-04-25T14:14:29;11.10;94.80
28863;DHT22;15994;51.796;13.006;2023-04-25T14:16:56;11.30;94.50
28863;DHT22;15994;51.796;13.006;2023-04-25T14:19:23;11.30;94.30
28863;DHT22;15994;51.796;13.006;2023-04-25T14:21:50;11.60;94.40
28863;DHT22;15994;51.796;13.006;2023-04-25T14:24:16;11.30;93.80
28863;DHT22;15994;51.796;13.006;2023-04-25T14:26:43;11.40;93.90
28863;DHT22;15994;51.796;13.006;2023-04-25T14:29:10;11.40;93.10
28863;DHT22;15994;51.796;13.006;2023-04-25T14:31:38;11.50;93.00
28863;DHT22;15994;51.796;13.006;2023-04-25T14:34:05;11.40;92.60
28863;DHT22;15994;51.796;13.006;2023-04-25T14:36:32;11.50;92.70
28863;DHT22;15994;51.796;13.006;2023-04-25T14:38:59;11.40;91.80
28863;DHT22;15994;51.796;13.006;2023-04-25T14:41:26;11.40;91.80
28863;DHT22;15994;51.796;13.006;2023-04-25T14:43:53;11.30;92.00
28863;DHT22;15994;51.796;13.006;2023-04-25T14:46:20;11.20;92.70
28863;DHT22;15994;51.796;13.006;2023-04-25T14:48:47;11.40;93.50
28863;DHT22;15994;51.796;13.006;2023-04-25T14:51:13;11.30;93.10
28863;DHT22;15994;51.796;13.006;2023-04-25T14:53:41;11.40;93.40
28863;DHT22;15994;51.796;13.006;2023-04-25T14:56:07;11.50;93.60
28863;DHT22;15994;51.796;13.006;2023-04-25T14:58:34;11.30;92.70
28863;DHT22;15994;51.796;13.006;2023-04-25T15:01:01;11.10;93.50
28863;DHT22;15994;51.796;13.006;2023-04-25T15:03:27;11.20;92.40
28863;DHT22;15994;51.796;13.006;2023-04-25T15:05:55;11.30;92.30
28863;DHT22;15994;51.796;13.006;2023-04-25T15:08:21;11.10;92.80
28863;DHT22;15994;51.796;13.006;2023-04-25T15:10:48;11.00;92.80
28863;DHT22;15994;51.796;13.006;2023-04-25T15:13:15;11.00;93.20
28863;DHT22;15994;51.796;13.006;2023-04-25T15:15:41;10.90;93.30
28863;DHT22;15994;51.796;13.006;2023-04-25T15:18:08;10.70;93.20
28863;DHT22;15994;51.796;13.006;2023-04-25T15:20:34;10.70;93.40
28863;DHT22;15994;51.796;13.006;2023-04-25T15:23:01;10.70;93.50
28863;DHT22;15994;51.796;13.006;2023-04-25T15:25:28;10.70;93.90
28863;DHT22;15994;51.796;13.006;2023-04-25T15:27:55;10.80;94.30
28863;DHT22;15994;51.796;13.006;2023-04-25T15:30:21;11.00;94.30
28863;DHT22;15994;51.796;13.006;2023-04-25T15:32:48;11.20;94.50
28863;DHT22;15994;51.796;13.006;2023-04-25T15:35:14;11.40;93.80
28863;DHT22;15994;51.796;13.006;2023-04-25T15:37:41;11.30;93.80